sensor_id;sensor_type;location;lat;lon;timestamp;pressure;altitude;pressure_sealevel;temperature;humidity
68179;BME280;69812;42.632;23.440;2023-05-03T00:01:24;95441.25;;;10.93;40.64
68179;BME280;69812;42.632;23.440;2023-05-03T00:03:52;95461.63;;;10.95;40.36
68179;BME280;69812;42.632;23.440;2023-05-03T00:06:18;95464.50;;;11.01;40.80
68179;BME280;69812;42.632;23.440;2023-05-03T00:08:44;95474.63;;;10.93;41.50
68179;BME280;69812;42.632;23.440;2023-05-03T00:11:11;95465.47;;;10.79;41.79
68179;BME280;69812;42.632;23.440;2023-05-03T00:13:37;95461.03;;;10.81;41.17
68179;BME280;69812;42.632;23.440;2023-05-03T00:16:02;95455.41;;;10.66;41.40
68179;BME280;69812;42.632;23.440;2023-05-03T00:18:28;95471.88;;;10.64;41.86
68179;BME280;69812;42.632;23.440;2023-05-03T00:20:55;95461.94;;;10.50;41.80
68179;BME280;69812;42.632;23.440;2023-05-03T00:23:21;95463.72;;;10.38;41.88
68179;BME280;69812;42.632;23.440;2023-05-03T00:25:54;95464.53;;;10.38;42.29
68179;BME280;69812;42.632;23.440;2023-05-03T00:28:20;95485.75;;;10.40;41.79
68179;BME280;69812;42.632;23.440;2023-05-03T00:30:45;95481.19;;;10.44;41.96
68179;BME280;69812;42.632;23.440;2023-05-03T00:33:11;95493.44;;;10.40;42.35
68179;BME280;69812;42.632;23.440;2023-05-03T00:35:38;95480.88;;;10.37;42.33
68179;BME280;69812;42.632;23.440;2023-05-03T00:38:04;95482.50;;;10.27;43.03
68179;BME280;69812;42.632;23.440;2023-05-03T00:41:03;95485.56;;;10.21;42.38
68179;BME280;69812;42.632;23.440;2023-05-03T00:43:22;95492.31;;;10.33;42.49
68179;BME280;69812;42.632;23.440;2023-05-03T00:45:47;95485.34;;;10.24;42.79
68179;BME280;69812;42.632;23.440;2023-05-03T00:48:13;95478.00;;;10.19;42.26
68179;BME280;69812;42.632;23.440;2023-05-03T00:50:39;95464.81;;;10.24;42.76
68179;BME280;69812;42.632;23.440;2023-05-03T00:53:04;95467.38;;;10.24;42.94
68179;BME280;69812;42.632;23.440;2023-05-03T00:55:34;95465.53;;;10.15;43.69
68179;BME280;69812;42.632;23.440;2023-05-03T00:58:00;95447.63;;;10.03;43.81
68179;BME280;69812;42.632;23.440;2023-05-03T01:00:25;95454.94;;;10.08;43.87
68179;BME280;69812;42.632;23.440;2023-05-03T01:02:51;95456.69;;;10.07;43.93
68179;BME280;69812;42.632;23.440;2023-05-03T01:05:17;95463.31;;;10.10;44.15
68179;BME280;69812;42.632;23.440;2023-05-03T01:08:04;95455.41;;;10.13;43.97
68179;BME280;69812;42.632;23.440;2023-05-03T01:10:49;95453.22;;;10.08;43.78
68179;BME280;69812;42.632;23.440;2023-05-03T01:16:35;95433.66;;;9.96;44.25
68179;BME280;69812;42.632;23.440;2023-05-03T01:19:28;95427.72;;;9.96;44.46
68179;BME280;69812;42.632;23.440;2023-05-03T01:22:02;95415.88;;;9.83;44.93
68179;BME280;69812;42.632;23.440;2023-05-03T01:24:30;95443.50;;;9.80;45.28
68179;BME280;69812;42.632;23.440;2023-05-03T01:26:56;95432.69;;;9.76;45.11
68179;BME280;69812;42.632;23.440;2023-05-03T01:29:22;95436.22;;;9.96;44.56
68179;BME280;69812;42.632;23.440;2023-05-03T01:31:57;95440.78;;;9.93;44.37
68179;BME280;69812;42.632;23.440;2023-05-03T01:34:32;95437.16;;;9.95;44.46
68179;BME280;69812;42.632;23.440;2023-05-03T01:37:01;95435.97;;;9.99;44.14
68179;BME280;69812;42.632;23.440;2023-05-03T01:39:36;95432.59;;;9.99;44.44
68179;BME280;69812;42.632;23.440;2023-05-03T01:42:05;95433.03;;;10.04;44.37
68179;BME280;69812;42.632;23.440;2023-05-03T01:44:32;95429.13;;;10.00;44.23
68179;BME280;69812;42.632;23.440;2023-05-03T01:47:04;95414.00;;;9.85;44.44
68179;BME280;69812;42.632;23.440;2023-05-03T01:49:29;95417.84;;;9.80;45.15
68179;BME280;69812;42.632;23.440;2023-05-03T01:52:00;95411.56;;;9.84;45.06
68179;BME280;69812;42.632;23.440;2023-05-03T01:54:28;95412.78;;;9.69;45.51
68179;BME280;69812;42.632;23.440;2023-05-03T01:57:03;95414.41;;;9.70;45.73
68179;BME280;69812;42.632;23.440;2023-05-03T01:59:29;95410.25;;;9.57;45.78
68179;BME280;69812;42.632;23.440;2023-05-03T02:01:54;95406.28;;;9.53;46.24
68179;BME280;69812;42.632;23.440;2023-05-03T02:04:22;95383.47;;;9.39;46.33
68179;BME280;69812;42.632;23.440;2023-05-03T02:06:48;95389.31;;;9.41;46.03
68179;BME280;69812;42.632;23.440;2023-05-03T02:09:13;95382.19;;;9.44;46.19
68179;BME280;69812;42.632;23.440;2023-05-03T02:11:39;95380.69;;;9.42;46.36
68179;BME280;69812;42.632;23.440;2023-05-03T02:14:08;95376.50;;;9.52;46.10
68179;BME280;69812;42.632;23.440;2023-05-03T02:16:33;95387.66;;;9.51;46.16
68179;BME280;69812;42.632;23.440;2023-05-03T02:22:20;95383.72;;;9.47;45.63
68179;BME280;69812;42.632;23.440;2023-05-03T02:24:52;95389.16;;;9.54;45.85
68179;BME280;69812;42.632;23.440;2023-05-03T02:27:17;95375.91;;;9.49;45.52
68179;BME280;69812;42.632;23.440;2023-05-03T02:29:48;95379.75;;;9.43;46.51
68179;BME280;69812;42.632;23.440;2023-05-03T02:32:13;95382.31;;;9.43;45.85
68179;BME280;69812;42.632;23.440;2023-05-03T02:34:38;95375.91;;;9.49;46.12
68179;BME280;69812;42.632;23.440;2023-05-03T02:39:45;95394.28;;;9.54;45.65
68179;BME280;69812;42.632;23.440;2023-05-03T02:42:11;95393.00;;;9.59;45.75
68179;BME280;69812;42.632;23.440;2023-05-03T02:44:36;95384.88;;;9.54;45.79
68179;BME280;69812;42.632;23.440;2023-05-03T02:47:04;95394.47;;;9.73;45.41
68179;BME280;69812;42.632;23.440;2023-05-03T02:49:33;95393.31;;;9.66;45.42
68179;BME280;69812;42.632;23.440;2023-05-03T02:52:04;95388.28;;;9.76;45.29
68179;BME280;69812;42.632;23.440;2023-05-03T02:54:29;95370.84;;;9.58;46.17
68179;BME280;69812;42.632;23.440;2023-05-03T02:56:55;95376.69;;;9.60;45.38
68179;BME280;69812;42.632;23.440;2023-05-03T02:59:23;95382.88;;;9.58;45.80
68179;BME280;69812;42.632;23.440;2023-05-03T03:01:48;95360.88;;;9.55;45.79
68179;BME280;69812;42.632;23.440;2023-05-03T03:04:13;95376.81;;;9.59;46.05
68179;BME280;69812;42.632;23.440;2023-05-03T03:06:40;95385.34;;;9.48;46.49
68179;BME280;69812;42.632;23.440;2023-05-03T03:09:06;95374.25;;;9.48;46.58
68179;BME280;69812;42.632;23.440;2023-05-03T03:11:31;95380.56;;;9.55;45.56
68179;BME280;69812;42.632;23.440;2023-05-03T03:13:57;95380.56;;;9.55;45.93
68179;BME280;69812;42.632;23.440;2023-05-03T03:16:22;95379.50;;;9.57;46.08
68179;BME280;69812;42.632;23.440;2023-05-03T03:18:48;95379.94;;;9.62;46.02
68179;BME280;69812;42.632;23.440;2023-05-03T03:21:28;95368.75;;;9.63;46.26
68179;BME280;69812;42.632;23.440;2023-05-03T03:24:06;95369.66;;;9.74;45.41
68179;BME280;69812;42.632;23.440;2023-05-03T03:26:34;95381.53;;;9.75;46.31
68179;BME280;69812;42.632;23.440;2023-05-03T03:28:59;95389.91;;;9.77;46.26
68179;BME280;69812;42.632;23.440;2023-05-03T03:31:25;95391.47;;;9.68;46.87
68179;BME280;69812;42.632;23.440;2023-05-03T03:33:53;95403.88;;;9.84;45.32
68179;BME280;69812;42.632;23.440;2023-05-03T03:36:20;95403.31;;;9.69;46.76
68179;BME280;69812;42.632;23.440;2023-05-03T03:38:45;95413.00;;;9.77;46.61
68179;BME280;69812;42.632;23.440;2023-05-03T03:41:11;95405.56;;;9.95;45.49
68179;BME280;69812;42.632;23.440;2023-05-03T03:43:36;95401.56;;;9.81;45.85
68179;BME280;69812;42.632;23.440;2023-05-03T03:46:11;95414.13;;;9.84;45.70
68179;BME280;69812;42.632;23.440;2023-05-03T03:48:36;95411.19;;;9.88;45.28
68179;BME280;69812;42.632;23.440;2023-05-03T03:51:03;95419.25;;;9.84;46.29
68179;BME280;69812;42.632;23.440;2023-05-03T03:53:28;95421.03;;;9.72;46.45
68179;BME280;69812;42.632;23.440;2023-05-03T03:55:54;95419.81;;;9.87;46.04
68179;BME280;69812;42.632;23.440;2023-05-03T03:58:20;95429.50;;;9.84;46.27
68179;BME280;69812;42.632;23.440;2023-05-03T04:00:48;95419.03;;;9.87;46.64
68179;BME280;69812;42.632;23.440;2023-05-03T04:03:18;95414.31;;;9.60;46.82
68179;BME280;69812;42.632;23.440;2023-05-03T04:05:46;95435.84;;;9.69;46.63
68179;BME280;69812;42.632;23.440;2023-05-03T04:08:11;95438.38;;;9.80;46.40
68179;BME280;69812;42.632;23.440;2023-05-03T04:10:39;95453.88;;;9.78;46.83
68179;BME280;69812;42.632;23.440;2023-05-03T04:13:20;95450.97;;;9.83;46.10
68179;BME280;69812;42.632;23.440;2023-05-03T04:15:48;95457.00;;;9.93;46.21
68179;BME280;69812;42.632;23.440;2023-05-03T04:18:17;95456.84;;;9.95;46.25
68179;BME280;69812;42.632;23.440;2023-05-03T04:20:43;95452.03;;;9.80;46.91
68179;BME280;69812;42.632;23.440;2023-05-03T04:23:11;95443.41;;;9.70;47.17
68179;BME280;69812;42.632;23.440;2023-05-03T04:25:49;95459.91;;;9.88;46.41
68179;BME280;69812;42.632;23.440;2023-05-03T04:28:21;95465.75;;;9.79;47.49
68179;BME280;69812;42.632;23.440;2023-05-03T04:30:49;95465.53;;;9.71;47.29
68179;BME280;69812;42.632;23.440;2023-05-03T04:33:15;95485.22;;;9.71;48.35
68179;BME280;69812;42.632;23.440;2023-05-03T04:35:41;95483.75;;;9.45;48.09
68179;BME280;69812;42.632;23.440;2023-05-03T04:38:07;95499.47;;;9.52;49.32
68179;BME280;69812;42.632;23.440;2023-05-03T04:40:33;95502.59;;;9.56;49.82
68179;BME280;69812;42.632;23.440;2023-05-03T04:42:59;95510.41;;;9.43;50.77
68179;BME280;69812;42.632;23.440;2023-05-03T04:45:39;95499.13;;;9.57;50.43
68179;BME280;69812;42.632;23.440;2023-05-03T04:48:05;95512.84;;;9.56;49.18
68179;BME280;69812;42.632;23.440;2023-05-03T04:50:33;95518.69;;;9.46;50.49
68179;BME280;69812;42.632;23.440;2023-05-03T04:52:59;95526.94;;;9.28;52.63
68179;BME280;69812;42.632;23.440;2023-05-03T04:55:24;95527.06;;;9.37;52.62
68179;BME280;69812;42.632;23.440;2023-05-03T04:57:50;95523.69;;;9.59;52.64
68179;BME280;69812;42.632;23.440;2023-05-03T05:00:15;95521.91;;;9.15;56.00
68179;BME280;69812;42.632;23.440;2023-05-03T05:02:41;95524.22;;;8.95;57.08
68179;BME280;69812;42.632;23.440;2023-05-03T05:05:08;95522.50;;;8.96;56.06
68179;BME280;69812;42.632;23.440;2023-05-03T05:07:34;95503.81;;;8.71;55.08
68179;BME280;69812;42.632;23.440;2023-05-03T05:09:59;95515.59;;;8.85;53.76
68179;BME280;69812;42.632;23.440;2023-05-03T05:12:27;95515.13;;;8.91;52.56
68179;BME280;69812;42.632;23.440;2023-05-03T05:14:53;95512.25;;;8.96;54.18
68179;BME280;69812;42.632;23.440;2023-05-03T05:17:18;95512.63;;;9.25;53.55
68179;BME280;69812;42.632;23.440;2023-05-03T05:19:45;95515.63;;;9.19;54.24
68179;BME280;69812;42.632;23.440;2023-05-03T05:22:13;95524.63;;;9.36;51.97
68179;BME280;69812;42.632;23.440;2023-05-03T05:24:38;95524.97;;;9.54;53.04
68179;BME280;69812;42.632;23.440;2023-05-03T05:27:10;95524.13;;;9.76;53.44
68179;BME280;69812;42.632;23.440;2023-05-03T05:29:35;95533.25;;;10.12;50.40
68179;BME280;69812;42.632;23.440;2023-05-03T05:32:01;95545.72;;;10.39;49.40
68179;BME280;69812;42.632;23.440;2023-05-03T05:34:29;95532.53;;;11.07;47.81
68179;BME280;69812;42.632;23.440;2023-05-03T05:36:55;95541.63;;;11.32;45.51
68179;BME280;69812;42.632;23.440;2023-05-03T05:39:20;95538.78;;;11.66;45.05
68179;BME280;69812;42.632;23.440;2023-05-03T05:41:47;95544.63;;;12.08;45.13
68179;BME280;69812;42.632;23.440;2023-05-03T05:44:12;95534.69;;;11.94;43.63
68179;BME280;69812;42.632;23.440;2023-05-03T05:46:38;95526.97;;;11.94;44.00
68179;BME280;69812;42.632;23.440;2023-05-03T05:49:18;95535.94;;;12.09;43.81
68179;BME280;69812;42.632;23.440;2023-05-03T05:51:44;95537.88;;;12.37;44.16
68179;BME280;69812;42.632;23.440;2023-05-03T05:54:12;95536.66;;;12.21;44.17
68179;BME280;69812;42.632;23.440;2023-05-03T05:56:37;95529.81;;;11.91;46.87
68179;BME280;69812;42.632;23.440;2023-05-03T05:59:03;95532.16;;;12.04;48.40
68179;BME280;69812;42.632;23.440;2023-05-03T06:01:30;95532.69;;;12.07;48.22
68179;BME280;69812;42.632;23.440;2023-05-03T06:03:58;95539.47;;;12.08;48.87
68179;BME280;69812;42.632;23.440;2023-05-03T06:06:24;95526.41;;;11.50;49.50
68179;BME280;69812;42.632;23.440;2023-05-03T06:08:49;95527.34;;;11.49;51.05
68179;BME280;69812;42.632;23.440;2023-05-03T06:11:16;95510.41;;;11.37;50.63
68179;BME280;69812;42.632;23.440;2023-05-03T06:13:43;95532.94;;;11.33;50.41
68179;BME280;69812;42.632;23.440;2023-05-03T06:16:10;95522.06;;;11.50;49.93
68179;BME280;69812;42.632;23.440;2023-05-03T06:18:35;95530.06;;;11.88;49.67
68179;BME280;69812;42.632;23.440;2023-05-03T06:21:00;95527.97;;;12.12;50.59
68179;BME280;69812;42.632;23.440;2023-05-03T06:23:26;95522.44;;;12.66;47.20
68179;BME280;69812;42.632;23.440;2023-05-03T06:25:52;95530.78;;;13.17;45.63
68179;BME280;69812;42.632;23.440;2023-05-03T06:28:18;95529.41;;;13.69;43.14
68179;BME280;69812;42.632;23.440;2023-05-03T06:30:48;95527.69;;;13.88;42.47
68179;BME280;69812;42.632;23.440;2023-05-03T06:33:36;95517.72;;;13.75;42.01
68179;BME280;69812;42.632;23.440;2023-05-03T06:36:01;95531.09;;;13.88;41.69
68179;BME280;69812;42.632;23.440;2023-05-03T06:38:36;95527.50;;;13.71;42.31
68179;BME280;69812;42.632;23.440;2023-05-03T06:41:01;95523.56;;;13.77;41.60
68179;BME280;69812;42.632;23.440;2023-05-03T06:43:27;95529.25;;;13.43;42.81
68179;BME280;69812;42.632;23.440;2023-05-03T06:45:52;95517.09;;;14.09;42.01
68179;BME280;69812;42.632;23.440;2023-05-03T06:48:17;95509.78;;;13.59;43.22
68179;BME280;69812;42.632;23.440;2023-05-03T06:50:49;95503.81;;;13.86;42.21
68179;BME280;69812;42.632;23.440;2023-05-03T06:53:14;95502.53;;;13.34;42.47
68179;BME280;69812;42.632;23.440;2023-05-03T06:55:42;95501.44;;;12.22;45.28
68179;BME280;69812;42.632;23.440;2023-05-03T06:58:08;95494.94;;;12.18;46.01
68179;BME280;69812;42.632;23.440;2023-05-03T07:00:36;95495.34;;;12.13;45.83
68179;BME280;69812;42.632;23.440;2023-05-03T07:03:05;95508.50;;;11.79;46.97
68179;BME280;69812;42.632;23.440;2023-05-03T07:05:31;95495.81;;;11.47;48.47
68179;BME280;69812;42.632;23.440;2023-05-03T07:07:56;95503.69;;;11.55;47.95
68179;BME280;69812;42.632;23.440;2023-05-03T07:10:22;95498.66;;;11.84;48.20
68179;BME280;69812;42.632;23.440;2023-05-03T07:12:50;95498.59;;;11.75;47.85
68179;BME280;69812;42.632;23.440;2023-05-03T07:15:15;95514.25;;;11.92;48.29
68179;BME280;69812;42.632;23.440;2023-05-03T07:17:40;95499.56;;;11.74;48.46
68179;BME280;69812;42.632;23.440;2023-05-03T07:20:06;95509.81;;;12.04;48.44
68179;BME280;69812;42.632;23.440;2023-05-03T07:22:32;95498.84;;;12.02;48.09
68179;BME280;69812;42.632;23.440;2023-05-03T07:24:57;95496.81;;;12.16;47.72
68179;BME280;69812;42.632;23.440;2023-05-03T07:27:24;95504.81;;;12.12;48.00
68179;BME280;69812;42.632;23.440;2023-05-03T07:29:50;95495.47;;;12.31;47.60
68179;BME280;69812;42.632;23.440;2023-05-03T07:32:17;95504.72;;;11.74;48.68
68179;BME280;69812;42.632;23.440;2023-05-03T07:34:42;95513.34;;;12.13;48.79
68179;BME280;69812;42.632;23.440;2023-05-03T07:37:07;95491.00;;;12.04;48.21
68179;BME280;69812;42.632;23.440;2023-05-03T07:39:33;95495.06;;;12.26;48.22
68179;BME280;69812;42.632;23.440;2023-05-03T07:41:58;95488.00;;;11.99;48.73
68179;BME280;69812;42.632;23.440;2023-05-03T07:44:24;95496.00;;;12.64;48.32
68179;BME280;69812;42.632;23.440;2023-05-03T07:46:49;95487.22;;;12.37;48.79
68179;BME280;69812;42.632;23.440;2023-05-03T07:49:17;95485.44;;;12.18;49.63
68179;BME280;69812;42.632;23.440;2023-05-03T07:51:43;95487.59;;;12.03;49.85
68179;BME280;69812;42.632;23.440;2023-05-03T07:54:10;95466.47;;;12.00;49.50
68179;BME280;69812;42.632;23.440;2023-05-03T07:56:35;95489.09;;;12.84;48.16
68179;BME280;69812;42.632;23.440;2023-05-03T07:59:00;95500.34;;;13.40;46.82
68179;BME280;69812;42.632;23.440;2023-05-03T08:01:26;95493.81;;;12.88;47.12
68179;BME280;69812;42.632;23.440;2023-05-03T08:03:52;95501.22;;;13.11;47.00
68179;BME280;69812;42.632;23.440;2023-05-03T08:06:18;95490.53;;;12.96;47.12
68179;BME280;69812;42.632;23.440;2023-05-03T08:08:43;95492.69;;;13.10;47.39
68179;BME280;69812;42.632;23.440;2023-05-03T08:11:09;95485.44;;;13.33;48.44
68179;BME280;69812;42.632;23.440;2023-05-03T08:13:37;95488.91;;;14.61;45.93
68179;BME280;69812;42.632;23.440;2023-05-03T08:16:03;95497.78;;;15.37;42.09
68179;BME280;69812;42.632;23.440;2023-05-03T08:18:47;95485.06;;;16.53;40.62
68179;BME280;69812;42.632;23.440;2023-05-03T08:21:13;95477.91;;;17.13;38.80
68179;BME280;69812;42.632;23.440;2023-05-03T08:23:39;95479.00;;;17.82;37.22
68179;BME280;69812;42.632;23.440;2023-05-03T08:26:06;95475.47;;;17.67;37.48
68179;BME280;69812;42.632;23.440;2023-05-03T08:28:33;95485.69;;;17.21;38.41
68179;BME280;69812;42.632;23.440;2023-05-03T08:31:02;95473.25;;;16.83;38.62
68179;BME280;69812;42.632;23.440;2023-05-03T08:33:31;95496.09;;;16.63;39.02
68179;BME280;69812;42.632;23.440;2023-05-03T08:35:56;95481.97;;;17.63;38.21
68179;BME280;69812;42.632;23.440;2023-05-03T08:38:22;95480.06;;;18.74;36.77
68179;BME280;69812;42.632;23.440;2023-05-03T08:40:50;95480.34;;;18.56;35.71
68179;BME280;69812;42.632;23.440;2023-05-03T08:43:18;95467.47;;;18.62;35.93
68179;BME280;69812;42.632;23.440;2023-05-03T08:45:44;95463.63;;;18.96;35.96
68179;BME280;69812;42.632;23.440;2023-05-03T08:48:13;95465.34;;;18.20;36.61
68179;BME280;69812;42.632;23.440;2023-05-03T08:50:38;95480.53;;;16.96;38.89
68179;BME280;69812;42.632;23.440;2023-05-03T08:53:10;95482.34;;;15.79;41.70
68179;BME280;69812;42.632;23.440;2023-05-03T08:55:36;95484.84;;;16.22;42.37
68179;BME280;69812;42.632;23.440;2023-05-03T08:58:05;95474.53;;;16.55;40.78
68179;BME280;69812;42.632;23.440;2023-05-03T09:00:35;95477.16;;;16.88;40.47
68179;BME280;69812;42.632;23.440;2023-05-03T09:03:00;95477.88;;;17.29;39.63
68179;BME280;69812;42.632;23.440;2023-05-03T09:05:35;95478.31;;;17.89;39.33
68179;BME280;69812;42.632;23.440;2023-05-03T09:08:05;95487.06;;;18.50;37.31
68179;BME280;69812;42.632;23.440;2023-05-03T09:10:33;95487.09;;;19.26;35.15
68179;BME280;69812;42.632;23.440;2023-05-03T09:13:01;95458.34;;;19.94;34.46
68179;BME280;69812;42.632;23.440;2023-05-03T09:15:29;95462.91;;;19.92;33.96
68179;BME280;69812;42.632;23.440;2023-05-03T09:18:09;95464.28;;;19.73;34.89
68179;BME280;69812;42.632;23.440;2023-05-03T09:20:40;95452.97;;;19.50;34.97
68179;BME280;69812;42.632;23.440;2023-05-03T09:23:07;95464.53;;;19.78;35.00
68179;BME280;69812;42.632;23.440;2023-05-03T09:25:58;95457.66;;;19.70;36.07
68179;BME280;69812;42.632;23.440;2023-05-03T09:28:26;95449.56;;;19.50;34.86
68179;BME280;69812;42.632;23.440;2023-05-03T09:31:03;95453.69;;;19.74;36.38
68179;BME280;69812;42.632;23.440;2023-05-03T09:33:33;95452.84;;;20.46;35.13
68179;BME280;69812;42.632;23.440;2023-05-03T09:36:02;95449.81;;;20.64;34.19
68179;BME280;69812;42.632;23.440;2023-05-03T09:38:43;95425.59;;;20.27;35.00
68179;BME280;69812;42.632;23.440;2023-05-03T09:41:27;95428.66;;;19.43;36.08
68179;BME280;69812;42.632;23.440;2023-05-03T09:43:53;95410.19;;;18.71;38.81
68179;BME280;69812;42.632;23.440;2023-05-03T09:46:20;95425.69;;;18.87;37.21
68179;BME280;69812;42.632;23.440;2023-05-03T09:48:47;95408.22;;;18.96;36.24
68179;BME280;69812;42.632;23.440;2023-05-03T09:51:15;95422.66;;;19.94;36.66
68179;BME280;69812;42.632;23.440;2023-05-03T09:53:43;95424.75;;;20.63;34.68
68179;BME280;69812;42.632;23.440;2023-05-03T09:56:10;95408.56;;;20.53;34.46
68179;BME280;69812;42.632;23.440;2023-05-03T09:58:54;95408.81;;;21.08;33.06
68179;BME280;69812;42.632;23.440;2023-05-03T10:01:20;95398.03;;;21.24;33.04
68179;BME280;69812;42.632;23.440;2023-05-03T10:03:51;95392.84;;;19.45;35.92
68179;BME280;69812;42.632;23.440;2023-05-03T10:06:25;95400.94;;;18.91;38.08
68179;BME280;69812;42.632;23.440;2023-05-03T10:11:52;95401.28;;;18.88;37.63
68179;BME280;69812;42.632;23.440;2023-05-03T10:14:21;95401.88;;;17.91;40.01
68179;BME280;69812;42.632;23.440;2023-05-03T10:17:01;95389.25;;;17.80;40.35
68179;BME280;69812;42.632;23.440;2023-05-03T10:19:39;95388.22;;;18.20;39.00
68179;BME280;69812;42.632;23.440;2023-05-03T10:22:07;95372.28;;;18.00;39.11
68179;BME280;69812;42.632;23.440;2023-05-03T10:24:34;95375.22;;;18.43;38.31
68179;BME280;69812;42.632;23.440;2023-05-03T10:27:00;95366.44;;;18.59;38.50
68179;BME280;69812;42.632;23.440;2023-05-03T10:32:05;95364.41;;;18.84;38.05
68179;BME280;69812;42.632;23.440;2023-05-03T10:35:08;95359.69;;;19.18;37.44
68179;BME280;69812;42.632;23.440;2023-05-03T10:37:34;95347.53;;;19.40;37.07
68179;BME280;69812;42.632;23.440;2023-05-03T10:40:14;95367.19;;;19.42;37.52
68179;BME280;69812;42.632;23.440;2023-05-03T10:42:55;95359.50;;;19.04;38.25
68179;BME280;69812;42.632;23.440;2023-05-03T10:45:24;95367.25;;;18.60;38.21
68179;BME280;69812;42.632;23.440;2023-05-03T10:50:37;95362.25;;;19.47;37.93
68179;BME280;69812;42.632;23.440;2023-05-03T10:53:03;95378.16;;;19.23;38.15
68179;BME280;69812;42.632;23.440;2023-05-03T10:55:28;95368.75;;;19.07;38.13
68179;BME280;69812;42.632;23.440;2023-05-03T10:57:56;95361.25;;;19.48;37.94
68179;BME280;69812;42.632;23.440;2023-05-03T11:05:41;95354.00;;;21.43;34.56
68179;BME280;69812;42.632;23.440;2023-05-03T11:08:14;95352.69;;;21.73;34.59
68179;BME280;69812;42.632;23.440;2023-05-03T11:11:07;95350.94;;;20.63;35.07
68179;BME280;69812;42.632;23.440;2023-05-03T11:13:40;95349.03;;;20.28;36.36
68179;BME280;69812;42.632;23.440;2023-05-03T11:16:08;95365.81;;;19.98;38.33
68179;BME280;69812;42.632;23.440;2023-05-03T11:18:46;95352.63;;;20.56;37.12
68179;BME280;69812;42.632;23.440;2023-05-03T11:21:15;95350.94;;;20.63;35.44
68179;BME280;69812;42.632;23.440;2023-05-03T11:23:41;95365.97;;;20.61;37.36
68179;BME280;69812;42.632;23.440;2023-05-03T11:26:08;95349.72;;;19.94;37.41
68179;BME280;69812;42.632;23.440;2023-05-03T11:28:40;95346.88;;;19.53;38.11
68179;BME280;69812;42.632;23.440;2023-05-03T11:33:53;95344.41;;;18.70;40.24
68179;BME280;69812;42.632;23.440;2023-05-03T11:36:18;95353.59;;;19.47;39.14
68179;BME280;69812;42.632;23.440;2023-05-03T11:38:44;95347.59;;;18.42;41.32
68179;BME280;69812;42.632;23.440;2023-05-03T11:41:26;95352.75;;;18.27;41.51
68179;BME280;69812;42.632;23.440;2023-05-03T11:43:51;95352.97;;;18.03;42.14
68179;BME280;69812;42.632;23.440;2023-05-03T11:46:22;95344.66;;;18.08;42.16
68179;BME280;69812;42.632;23.440;2023-05-03T11:48:48;95352.91;;;17.57;42.13
68179;BME280;69812;42.632;23.440;2023-05-03T11:51:14;95332.88;;;17.42;42.78
68179;BME280;69812;42.632;23.440;2023-05-03T11:53:40;95340.56;;;16.88;43.72
68179;BME280;69812;42.632;23.440;2023-05-03T11:56:11;95354.47;;;17.35;44.16
68179;BME280;69812;42.632;23.440;2023-05-03T11:58:52;95355.47;;;16.70;44.29
68179;BME280;69812;42.632;23.440;2023-05-03T12:01:22;95346.22;;;17.31;43.58
68179;BME280;69812;42.632;23.440;2023-05-03T12:03:52;95354.84;;;16.68;44.14
68179;BME280;69812;42.632;23.440;2023-05-03T12:06:17;95326.47;;;16.82;44.52
68179;BME280;69812;42.632;23.440;2023-05-03T12:08:43;95314.88;;;17.10;43.93
68179;BME280;69812;42.632;23.440;2023-05-03T12:11:11;95355.06;;;17.14;44.33
68179;BME280;69812;42.632;23.440;2023-05-03T12:13:39;95356.81;;;16.66;44.29
68179;BME280;69812;42.632;23.440;2023-05-03T12:16:09;95349.50;;;16.61;44.23
68179;BME280;69812;42.632;23.440;2023-05-03T12:19:03;95347.69;;;17.25;43.92
68179;BME280;69812;42.632;23.440;2023-05-03T12:21:46;95342.03;;;18.08;42.50
68179;BME280;69812;42.632;23.440;2023-05-03T12:24:12;95330.97;;;17.91;42.10
68179;BME280;69812;42.632;23.440;2023-05-03T12:26:43;95337.16;;;16.96;43.65
68179;BME280;69812;42.632;23.440;2023-05-03T12:29:08;95339.47;;;16.66;44.85
68179;BME280;69812;42.632;23.440;2023-05-03T12:31:33;95340.66;;;15.98;46.82
68179;BME280;69812;42.632;23.440;2023-05-03T12:34:01;95324.59;;;15.70;47.56
68179;BME280;69812;42.632;23.440;2023-05-03T12:36:40;95331.09;;;15.74;47.76
68179;BME280;69812;42.632;23.440;2023-05-03T12:39:08;95323.78;;;15.53;48.10
68179;BME280;69812;42.632;23.440;2023-05-03T12:41:34;95317.94;;;15.00;48.90
68179;BME280;69812;42.632;23.440;2023-05-03T12:44:02;95315.19;;;14.93;49.57
68179;BME280;69812;42.632;23.440;2023-05-03T12:46:32;95334.06;;;14.86;50.06
68179;BME280;69812;42.632;23.440;2023-05-03T12:48:57;95339.66;;;14.73;51.95
68179;BME280;69812;42.632;23.440;2023-05-03T12:51:23;95331.50;;;14.60;53.29
68179;BME280;69812;42.632;23.440;2023-05-03T12:53:49;95324.34;;;14.09;55.54
68179;BME280;69812;42.632;23.440;2023-05-03T12:56:15;95346.28;;;14.05;56.47
68179;BME280;69812;42.632;23.440;2023-05-03T12:58:40;95330.50;;;13.90;56.24
68179;BME280;69812;42.632;23.440;2023-05-03T13:01:06;95326.81;;;13.93;57.03
68179;BME280;69812;42.632;23.440;2023-05-03T13:03:32;95334.41;;;13.76;57.00
68179;BME280;69812;42.632;23.440;2023-05-03T13:06:07;95333.97;;;13.45;57.53
68179;BME280;69812;42.632;23.440;2023-05-03T13:08:35;95333.22;;;13.53;57.68
68179;BME280;69812;42.632;23.440;2023-05-03T13:11:00;95337.06;;;12.93;60.54
68179;BME280;69812;42.632;23.440;2023-05-03T13:13:27;95347.88;;;12.60;63.53
68179;BME280;69812;42.632;23.440;2023-05-03T13:15:53;95335.06;;;12.40;65.64
68179;BME280;69812;42.632;23.440;2023-05-03T13:18:18;95347.88;;;12.03;67.91
68179;BME280;69812;42.632;23.440;2023-05-03T13:20:53;95350.97;;;11.97;68.87
68179;BME280;69812;42.632;23.440;2023-05-03T13:23:18;95356.50;;;11.72;69.63
68179;BME280;69812;42.632;23.440;2023-05-03T13:25:44;95363.94;;;11.56;70.61